ADDS METAR Data INFO
IDs: Format: Raw Decoded Include TAF

Data at: 2112 UTC 20 Nov 2017

METAR for:KBRO (Brownsville Intl, TX, US)
Text:KBRO 202053Z 02008KT 10SM OVC037 22/16 A3004 RMK AO2 SLP170 T02170161 56031
Temperature: 21.7°C ( 71°F)
Dewpoint: 16.1°C ( 61°F) [RH = 70%]
Pressure (altimeter):30.04 inches Hg (1017.4 mb) [Sea level pressure: 1017.0 mb]
Winds:from the NNE (20 degrees) at 9 MPH (8 knots; 4.1 m/s)
Visibility:10 or more sm (16+ km)
Ceiling:3700 feet AGL
Clouds: overcast cloud deck at 3700 feet AGL